Time;durP1;ratioP1;P1;durP2;ratioP2;P2;SDS_P1;SDS_P2;PMS_P1;PMS_P2;Temp;Humidity;BMP_temperature;BMP_pressure;BME280_temperature;BME280_humidity;BME280_pressure;Samples;Min_cycle;Max_cycle;Signal;HPM_P1;HPM_P2
2021/03/20 00:01:19;;;;;;;17.38;9.70;;;;;;;;;;5012104;28;20046;-73
2021/03/20 00:03:45;;;;;;;16.80;7.97;;;;;;;;;;5012230;28;20053;-73
2021/03/20 00:06:12;;;;;;;16.38;7.88;;;;;;;;;;5011442;28;20080;-73
2021/03/20 00:08:42;;;;;;;14.25;7.95;;;;;;;;;;4995040;28;20046;-73
2021/03/20 00:11:08;;;;;;;15.40;8.38;;;;;;;;;;4994685;28;20107;-74
2021/03/20 00:13:34;;;;;;;12.73;8.82;;;;;;;;;;5010605;28;20077;-73
2021/03/20 00:16:01;;;;;;;14.77;8.55;;;;;;;;;;5010199;28;20077;-73
2021/03/20 00:18:27;;;;;;;14.05;8.82;;;;;;;;;;5011881;28;20050;-73
2021/03/20 00:20:54;;;;;;;14.93;9.65;;;;;;;;;;5010860;28;20091;-73
2021/03/20 00:23:20;;;;;;;12.07;8.10;;;;;;;;;;5010329;28;20464;-73
2021/03/20 00:25:46;;;;;;;14.10;9.15;;;;;;;;;;4986614;28;20620;-73
2021/03/20 00:28:14;;;;;;;15.23;9.27;;;;;;;;;;4992084;28;20101;-73
2021/03/20 00:30:40;;;;;;;14.65;8.63;;;;;;;;;;4975278;28;20046;-73
2021/03/20 00:33:07;;;;;;;15.00;9.50;;;;;;;;;;4974919;28;20050;-73
2021/03/20 00:35:33;;;;;;;18.65;9.65;;;;;;;;;;4974468;28;20061;-73
2021/03/20 00:37:59;;;;;;;14.00;8.90;;;;;;;;;;4992076;28;20090;-73
2021/03/20 00:40:28;;;;;;;17.58;8.95;;;;;;;;;;4974646;28;20070;-73
2021/03/20 00:42:54;;;;;;;17.00;9.40;;;;;;;;;;4988824;28;20505;-73
2021/03/20 00:45:22;;;;;;;15.98;9.15;;;;;;;;;;5009906;28;20054;-73
2021/03/20 00:47:48;;;;;;;14.27;9.13;;;;;;;;;;4994334;28;20427;-73
2021/03/20 00:50:19;;;;;;;14.73;8.98;;;;;;;;;;5011394;28;20141;-73
2021/03/20 00:52:45;;;;;;;17.42;9.90;;;;;;;;;;5011660;28;20124;-73
2021/03/20 00:55:12;;;;;;;16.63;9.80;;;;;;;;;;5011579;28;20054;-73
2021/03/20 00:57:38;;;;;;;15.48;8.43;;;;;;;;;;5015230;28;20089;-73
2021/03/20 01:00:09;;;;;;;13.57;8.82;;;;;;;;;;5013983;28;20127;-73
2021/03/20 01:02:35;;;;;;;16.48;8.80;;;;;;;;;;5015025;28;20140;-73
2021/03/20 01:05:03;;;;;;;11.93;8.00;;;;;;;;;;5015656;28;20058;-74
2021/03/20 01:07:29;;;;;;;14.35;8.77;;;;;;;;;;4997346;28;20100;-73
2021/03/20 01:09:55;;;;;;;15.15;9.02;;;;;;;;;;5015033;28;20050;-73
2021/03/20 01:12:21;;;;;;;14.00;8.57;;;;;;;;;;4997406;28;20470;-73
2021/03/20 01:14:47;;;;;;;14.40;8.30;;;;;;;;;;5015078;28;20050;-73
2021/03/20 01:17:13;;;;;;;14.13;8.27;;;;;;;;;;5014610;28;20092;-73
2021/03/20 01:19:39;;;;;;;14.57;8.48;;;;;;;;;;5013603;28;20049;-73
2021/03/20 01:22:06;;;;;;;12.13;8.00;;;;;;;;;;5014846;28;20455;-73
2021/03/20 01:24:32;;;;;;;15.57;9.38;;;;;;;;;;5014831;28;20046;-73
2021/03/20 01:26:58;;;;;;;13.52;8.38;;;;;;;;;;5002837;28;20501;-73
2021/03/20 01:29:24;;;;;;;12.52;8.15;;;;;;;;;;4993868;28;20105;-73
2021/03/20 01:31:51;;;;;;;12.93;7.68;;;;;;;;;;4995170;28;20205;-73
2021/03/20 01:34:18;;;;;;;13.23;8.63;;;;;;;;;;4995059;28;20046;-73
2021/03/20 01:36:44;;;;;;;13.05;8.02;;;;;;;;;;4994853;28;20092;-73
2021/03/20 01:39:10;;;;;;;13.25;8.43;;;;;;;;;;4994915;28;20101;-73
2021/03/20 01:41:36;;;;;;;13.15;7.90;;;;;;;;;;4995000;28;20128;-73
2021/03/20 01:44:03;;;;;;;16.10;7.75;;;;;;;;;;4993878;28;20133;-73
2021/03/20 01:46:47;;;;;;;12.85;7.82;;;;;;;;;;4994449;28;20117;-73
2021/03/20 01:49:27;;;;;;;12.07;7.47;;;;;;;;;;4978690;28;20125;-73
2021/03/20 01:52:00;;;;;;;12.00;7.22;;;;;;;;;;4994759;28;20124;-73
2021/03/20 01:54:48;;;;;;;10.52;7.55;;;;;;;;;;4993543;28;20054;-73
2021/03/20 01:57:17;;;;;;;9.65;6.82;;;;;;;;;;4966466;28;20572;-73
2021/03/20 01:59:44;;;;;;;11.05;7.50;;;;;;;;;;4977526;28;20472;-73
2021/03/20 02:02:10;;;;;;;13.38;7.82;;;;;;;;;;4977378;28;20050;-71
2021/03/20 02:04:37;;;;;;;11.02;7.05;;;;;;;;;;4994428;28;20054;-70
2021/03/20 02:07:03;;;;;;;11.98;7.38;;;;;;;;;;4993968;28;20051;-71
2021/03/20 02:09:29;;;;;;;10.82;7.07;;;;;;;;;;4977225;28;20137;-71
2021/03/20 02:12:20;;;;;;;10.65;6.35;;;;;;;;;;4994578;28;20100;-71
2021/03/20 02:14:51;;;;;;;13.45;7.20;;;;;;;;;;4979139;28;20077;-71
2021/03/20 02:17:33;;;;;;;12.00;6.40;;;;;;;;;;4976665;28;20050;-71
2021/03/20 02:20:29;;;;;;;13.90;7.53;;;;;;;;;;4994318;28;20054;-71
2021/03/20 02:23:14;;;;;;;10.30;6.57;;;;;;;;;;4994106;28;20552;-71
2021/03/20 02:26:04;;;;;;;9.95;6.47;;;;;;;;;;4976507;28;20054;-71
2021/03/20 02:29:07;;;;;;;10.68;6.18;;;;;;;;;;4996229;28;20097;-71
2021/03/20 02:31:41;;;;;;;10.55;7.55;;;;;;;;;;5013581;28;20444;-71
2021/03/20 02:34:30;;;;;;;9.68;6.35;;;;;;;;;;4996261;28;20054;-71
2021/03/20 02:37:11;;;;;;;12.13;6.55;;;;;;;;;;4996513;28;20058;-71
2021/03/20 02:40:03;;;;;;;11.68;6.85;;;;;;;;;;4996574;28;20046;-71
2021/03/20 02:42:35;;;;;;;10.13;6.63;;;;;;;;;;5012017;28;20508;-71
2021/03/20 02:45:01;;;;;;;10.32;6.30;;;;;;;;;;5012192;28;20104;-71
2021/03/20 02:47:30;;;;;;;10.77;6.90;;;;;;;;;;5012923;28;20432;-71
2021/03/20 02:50:09;;;;;;;9.10;6.13;;;;;;;;;;4996163;28;20505;-71
2021/03/20 02:52:44;;;;;;;11.88;6.85;;;;;;;;;;4980536;28;20046;-71
2021/03/20 02:55:27;;;;;;;10.60;6.75;;;;;;;;;;4996968;28;20046;-71
2021/03/20 02:58:11;;;;;;;10.23;6.70;;;;;;;;;;5011826;28;20493;-71
2021/03/20 03:00:45;;;;;;;9.32;6.65;;;;;;;;;;4995754;28;20044;-71
2021/03/20 03:03:11;;;;;;;9.73;6.65;;;;;;;;;;4996329;28;20046;-71
2021/03/20 03:06:02;;;;;;;10.65;7.00;;;;;;;;;;4995199;28;20180;-72
2021/03/20 03:08:43;;;;;;;10.07;6.25;;;;;;;;;;4998054;28;20046;-71
2021/03/20 03:11:30;;;;;;;9.85;6.82;;;;;;;;;;4997002;28;20050;-71
2021/03/20 03:14:38;;;;;;;9.10;6.15;;;;;;;;;;5013158;28;20054;-71
2021/03/20 03:17:05;;;;;;;10.32;6.40;;;;;;;;;;5011438;28;20060;-72
2021/03/20 03:19:37;;;;;;;9.93;6.80;;;;;;;;;;4994654;28;20053;-71
2021/03/20 03:22:07;;;;;;;12.15;7.65;;;;;;;;;;4995954;28;20081;-72
2021/03/20 03:24:33;;;;;;;11.00;7.43;;;;;;;;;;4995074;28;20057;-71
2021/03/20 03:27:09;;;;;;;9.90;6.57;;;;;;;;;;5012319;28;20050;-72
2021/03/20 03:29:35;;;;;;;10.68;7.13;;;;;;;;;;5012359;28;20073;-71
2021/03/20 03:32:14;;;;;;;11.13;6.55;;;;;;;;;;5011365;28;20497;-71
2021/03/20 03:35:05;;;;;;;10.75;6.32;;;;;;;;;;5011507;28;20077;-71
2021/03/20 03:38:01;;;;;;;8.13;5.78;;;;;;;;;;4994820;28;20505;-71
2021/03/20 03:40:27;;;;;;;10.68;6.57;;;;;;;;;;4997758;28;20085;-71
2021/03/20 03:42:53;;;;;;;9.80;6.53;;;;;;;;;;5012587;28;20056;-71
2021/03/20 03:45:20;;;;;;;9.77;6.28;;;;;;;;;;4994404;28;20061;-71
2021/03/20 03:47:48;;;;;;;13.60;7.13;;;;;;;;;;4995152;28;20073;-71
2021/03/20 03:50:23;;;;;;;11.63;7.68;;;;;;;;;;5012214;28;20149;-71
2021/03/20 03:52:49;;;;;;;14.90;8.15;;;;;;;;;;5012073;28;20096;-71
2021/03/20 03:55:15;;;;;;;9.60;6.93;;;;;;;;;;4994397;28;20501;-71
2021/03/20 03:57:43;;;;;;;10.32;6.95;;;;;;;;;;4994457;28;20492;-71
2021/03/20 04:00:34;;;;;;;11.77;7.07;;;;;;;;;;4994823;28;20455;-71
2021/03/20 04:03:10;;;;;;;11.70;7.40;;;;;;;;;;5011062;28;20116;-71
2021/03/20 04:05:49;;;;;;;9.38;6.65;;;;;;;;;;5011675;28;20064;-71
2021/03/20 04:08:33;;;;;;;10.95;7.10;;;;;;;;;;4978450;28;20053;-71
2021/03/20 04:11:12;;;;;;;11.23;7.18;;;;;;;;;;5010899;28;20046;-71
2021/03/20 04:14:10;;;;;;;11.73;7.03;;;;;;;;;;4995185;28;20107;-72
2021/03/20 04:16:54;;;;;;;10.73;7.03;;;;;;;;;;5010500;28;20104;-71
2021/03/20 04:19:31;;;;;;;10.88;7.25;;;;;;;;;;5011724;28;20584;-71
2021/03/20 04:22:08;;;;;;;14.02;9.02;;;;;;;;;;5019652;23;20358;-72
2021/03/20 04:25:02;;;;;;;10.82;7.63;;;;;;;;;;5016325;28;20060;-72
2021/03/20 04:27:32;;;;;;;12.70;7.15;;;;;;;;;;5005092;28;20082;-72
2021/03/20 04:30:02;;;;;;;12.05;7.43;;;;;;;;;;5035365;28;20048;-72
2021/03/20 04:32:50;;;;;;;11.25;7.38;;;;;;;;;;5055317;28;20102;-72
2021/03/20 04:35:27;;;;;;;13.15;7.13;;;;;;;;;;5055066;28;20049;-72
2021/03/20 04:37:54;;;;;;;12.40;7.78;;;;;;;;;;5037804;28;20049;-72
2021/03/20 04:40:26;;;;;;;12.63;7.40;;;;;;;;;;5037677;28;20053;-72
2021/03/20 04:42:53;;;;;;;12.23;7.82;;;;;;;;;;5055329;28;20106;-72
2021/03/20 04:45:28;;;;;;;10.70;7.63;;;;;;;;;;5036853;28;20053;-72
2021/03/20 04:47:58;;;;;;;13.00;8.32;;;;;;;;;;5021909;28;20127;-72
2021/03/20 04:50:26;;;;;;;12.13;7.95;;;;;;;;;;5037796;28;20095;-72
2021/03/20 04:52:52;;;;;;;12.23;8.15;;;;;;;;;;5020118;28;20550;-72
2021/03/20 04:55:19;;;;;;;12.18;7.88;;;;;;;;;;5016957;28;20088;-72
2021/03/20 04:57:49;;;;;;;10.35;7.30;;;;;;;;;;5017680;28;20049;-72
2021/03/20 05:00:30;;;;;;;13.27;8.55;;;;;;;;;;5017814;28;20099;-72
2021/03/20 05:03:19;;;;;;;13.10;8.52;;;;;;;;;;5033867;28;20132;-72
2021/03/20 05:05:54;;;;;;;13.63;8.40;;;;;;;;;;5016740;28;20500;-72
2021/03/20 05:08:33;;;;;;;13.80;8.55;;;;;;;;;;5017400;28;20053;-72
2021/03/20 05:11:02;;;;;;;18.58;9.68;;;;;;;;;;5033754;28;20046;-72
2021/03/20 05:13:37;;;;;;;14.60;9.52;;;;;;;;;;5045025;28;20569;-72
2021/03/20 05:16:39;;;;;;;18.02;9.93;;;;;;;;;;5053957;28;20052;-72
2021/03/20 05:19:06;;;;;;;14.57;8.52;;;;;;;;;;5037000;28;20060;-72
2021/03/20 05:21:38;;;;;;;16.33;9.32;;;;;;;;;;5052560;28;20053;-72
2021/03/20 05:24:05;;;;;;;11.52;8.05;;;;;;;;;;5037343;28;20060;-72
2021/03/20 05:26:32;;;;;;;16.70;8.93;;;;;;;;;;5048945;28;20179;-72
2021/03/20 05:28:58;;;;;;;13.13;8.35;;;;;;;;;;5012990;28;20102;-72
2021/03/20 05:31:25;;;;;;;14.63;9.20;;;;;;;;;;5020209;28;20057;-72
2021/03/20 05:33:52;;;;;;;15.75;8.95;;;;;;;;;;5020418;28;20131;-72
2021/03/20 05:36:18;;;;;;;14.20;8.50;;;;;;;;;;5036057;28;20044;-72
2021/03/20 05:38:46;;;;;;;14.75;8.68;;;;;;;;;;5036654;28;20053;-72
2021/03/20 05:41:54;;;;;;;12.05;7.90;;;;;;;;;;5036068;28;20476;-72
2021/03/20 05:44:37;;;;;;;17.13;8.23;;;;;;;;;;5053861;28;20107;-72
2021/03/20 05:47:05;;;;;;;13.23;8.23;;;;;;;;;;5035730;28;20099;-72
2021/03/20 05:49:31;;;;;;;13.57;8.27;;;;;;;;;;5050312;28;20561;-72
2021/03/20 05:52:19;;;;;;;11.32;7.85;;;;;;;;;;5048182;28;20056;-72
2021/03/20 05:55:00;;;;;;;10.82;7.20;;;;;;;;;;5036324;28;20106;-72
2021/03/20 05:57:34;;;;;;;13.05;7.07;;;;;;;;;;5053197;28;20568;-72
2021/03/20 06:00:16;;;;;;;11.10;7.38;;;;;;;;;;5036072;28;20472;-72
2021/03/20 06:03:10;;;;;;;10.98;7.07;;;;;;;;;;5019445;28;20049;-72
2021/03/20 06:05:55;;;;;;;;;;;;;;;;;;5053672;28;20053;-72
2021/03/20 06:08:51;;;;;;;11.98;6.70;;;;;;;;;;5035480;28;19925;-72
2021/03/20 06:11:34;;;;;;;11.13;6.80;;;;;;;;;;5035983;28;20458;-72
2021/03/20 06:14:38;;;;;;;11.27;7.53;;;;;;;;;;5035789;28;20308;-72
2021/03/20 06:17:19;;;;;;;10.73;7.53;;;;;;;;;;5030939;28;20056;-72
2021/03/20 06:20:00;;;;;;;13.02;7.53;;;;;;;;;;5037099;28;20076;-72
2021/03/20 06:23:07;;;;;;;10.63;7.00;;;;;;;;;;5035535;28;20097;-72
2021/03/20 06:25:52;;;;;;;8.07;5.80;;;;;;;;;;5034108;28;20045;-72
2021/03/20 06:28:24;;;;;;;7.75;5.95;;;;;;;;;;5053571;28;20084;-73
2021/03/20 06:30:55;;;;;;;9.63;6.57;;;;;;;;;;5019096;28;20060;-72
2021/03/20 06:33:28;;;;;;;9.02;6.55;;;;;;;;;;5035503;28;20049;-72
2021/03/20 06:36:06;;;;;;;7.20;5.32;;;;;;;;;;5036124;28;20057;-72
2021/03/20 06:38:44;;;;;;;9.07;6.07;;;;;;;;;;5019576;28;20076;-72
2021/03/20 06:41:27;;;;;;;10.25;5.63;;;;;;;;;;5035336;28;20044;-72
2021/03/20 06:43:59;;;;;;;8.57;5.40;;;;;;;;;;5019086;28;20584;-72
2021/03/20 06:46:31;;;;;;;10.00;5.70;;;;;;;;;;5018491;28;20163;-73
2021/03/20 06:48:59;;;;;;;6.13;5.10;;;;;;;;;;5019399;28;20056;-72
2021/03/20 06:51:25;;;;;;;8.18;4.97;;;;;;;;;;5031557;28;20415;-72
2021/03/20 06:53:57;;;;;;;8.15;5.63;;;;;;;;;;4998138;28;20053;-73
2021/03/20 06:56:24;;;;;;;5.68;4.68;;;;;;;;;;4998738;28;20099;-73
2021/03/20 06:58:50;;;;;;;9.10;4.20;;;;;;;;;;4999547;28;20119;-73
2021/03/20 07:01:24;;;;;;;5.78;3.70;;;;;;;;;;5019601;28;20046;-73
2021/03/20 07:04:09;;;;;;;5.18;3.40;;;;;;;;;;4996763;28;20412;-75
2021/03/20 07:06:50;;;;;;;6.10;3.63;;;;;;;;;;4997323;28;20465;-73
2021/03/20 07:09:16;;;;;;;4.90;3.22;;;;;;;;;;5013031;28;20045;-74
2021/03/20 07:11:44;;;;;;;4.38;3.70;;;;;;;;;;5030678;28;20115;-74
2021/03/20 07:14:40;;;;;;;4.20;3.15;;;;;;;;;;4997685;28;20524;-74
2021/03/20 07:17:30;;;;;;;6.10;3.10;;;;;;;;;;5029411;28;20566;-75
2021/03/20 07:20:08;;;;;;;6.40;3.78;;;;;;;;;;5006812;28;20455;-74
2021/03/20 07:22:44;;;;;;;5.28;3.17;;;;;;;;;;4996733;28;20060;-74
2021/03/20 07:25:23;;;;;;;3.15;2.83;;;;;;;;;;4997153;28;20393;-74
2021/03/20 07:27:50;;;;;;;4.85;3.08;;;;;;;;;;5030114;28;20046;-73
2021/03/20 07:30:42;;;;;;;6.97;3.47;;;;;;;;;;4995983;28;20084;-73
2021/03/20 07:33:28;;;;;;;5.60;3.08;;;;;;;;;;5013386;28;20073;-74
2021/03/20 07:35:58;;;;;;;7.03;3.72;;;;;;;;;;5013610;28;20053;-74
2021/03/20 07:38:28;;;;;;;5.10;3.45;;;;;;;;;;4996548;28;20107;-74
2021/03/20 07:41:06;;;;;;;4.95;3.17;;;;;;;;;;4996725;28;20461;-74
2021/03/20 07:43:32;;;;;;;4.60;3.90;;;;;;;;;;5003954;28;20076;-73
2021/03/20 07:46:16;;;;;;;4.57;3.15;;;;;;;;;;5031872;28;20057;-73
2021/03/20 07:48:43;;;;;;;4.25;3.45;;;;;;;;;;5015739;28;20053;-73
2021/03/20 07:51:14;;;;;;;6.15;3.35;;;;;;;;;;5048257;28;20466;-73
2021/03/20 07:53:51;;;;;;;4.03;3.22;;;;;;;;;;5012632;28;20111;-73
2021/03/20 07:56:31;;;;;;;4.45;2.63;;;;;;;;;;5005213;28;20045;-73
2021/03/20 07:59:06;;;;;;;5.68;3.33;;;;;;;;;;5026433;28;20558;-75
2021/03/20 08:01:34;;;;;;;4.85;3.00;;;;;;;;;;5023975;28;20122;-73
2021/03/20 08:04:07;;;;;;;3.15;2.75;;;;;;;;;;5008980;28;20060;-73
2021/03/20 08:06:39;;;;;;;6.70;2.53;;;;;;;;;;5013001;28;20515;-73
2021/03/20 08:09:17;;;;;;;5.50;3.17;;;;;;;;;;5030133;28;20053;-73
2021/03/20 08:11:44;;;;;;;4.45;2.88;;;;;;;;;;5043312;28;20106;-73
2021/03/20 08:14:38;;;;;;;4.68;3.20;;;;;;;;;;5008488;28;20095;-73
2021/03/20 08:17:05;;;;;;;3.15;2.85;;;;;;;;;;5039344;28;20487;-73
2021/03/20 08:19:32;;;;;;;7.75;3.30;;;;;;;;;;4998838;28;20076;-73
2021/03/20 08:22:15;;;;;;;4.60;2.80;;;;;;;;;;5004838;28;20099;-75
2021/03/20 08:25:11;;;;;;;3.40;2.60;;;;;;;;;;5023156;28;20045;-74
2021/03/20 08:27:40;;;;;;;2.83;2.33;;;;;;;;;;5020012;28;20092;-75
2021/03/20 08:30:31;;;;;;;4.25;2.40;;;;;;;;;;5001566;28;20138;-76
2021/03/20 08:32:57;;;;;;;3.38;2.55;;;;;;;;;;5021274;28;20466;-74
2021/03/20 08:39:44;;;;;;;5.60;2.80;;;;;;;;;;4951016;28;20095;-76
2021/03/20 08:42:31;;;;;;;5.13;2.55;;;;;;;;;;4966026;28;20049;-77
2021/03/20 08:45:53;;;;;;;4.00;2.38;;;;;;;;;;5004432;28;20072;-75
2021/03/20 08:49:57;;;;;;;3.30;2.20;;;;;;;;;;5002470;28;20087;-76
2021/03/20 08:52:49;;;;;;;4.78;3.38;;;;;;;;;;5021163;28;20057;-76
2021/03/20 08:56:14;;;;;;;4.60;1.98;;;;;;;;;;5001332;28;20053;-76
2021/03/20 08:59:02;;;;;;;3.08;2.20;;;;;;;;;;4951108;28;20549;-76
2021/03/20 09:01:36;;;;;;;2.45;1.83;;;;;;;;;;4952113;28;20482;-77
2021/03/20 09:04:18;;;;;;;3.63;2.40;;;;;;;;;;4965908;28;20062;-74
2021/03/20 09:10:41;;;;;;;1.40;1.25;;;;;;;;;;4966055;28;20081;-76
2021/03/20 09:14:06;;;;;;;1.63;1.15;;;;;;;;;;4934904;28;20046;-77
2021/03/20 09:17:05;;;;;;;2.25;1.80;;;;;;;;;;4959499;28;20481;-75
2021/03/20 09:19:39;;;;;;;1.75;1.50;;;;;;;;;;4957227;28;20061;-74
2021/03/20 09:22:12;;;;;;;2.78;1.70;;;;;;;;;;4938040;28;20054;-77
2021/03/20 09:24:53;;;;;;;2.78;1.75;;;;;;;;;;4956117;28;20051;-76
2021/03/20 09:30:53;;;;;;;1.42;1.15;;;;;;;;;;5018336;28;20042;-73
2021/03/20 09:33:20;;;;;;;4.68;1.50;;;;;;;;;;5010844;28;20049;-75
2021/03/20 09:35:51;;;;;;;4.47;1.85;;;;;;;;;;5026757;28;20053;-73
2021/03/20 09:38:36;;;;;;;2.63;1.40;;;;;;;;;;5005161;28;20121;-77
2021/03/20 09:41:28;;;;;;;4.68;1.95;;;;;;;;;;5026030;28;20128;-78
2021/03/20 09:43:54;;;;;;;3.22;1.60;;;;;;;;;;5000812;28;20053;-77
2021/03/20 09:46:39;;;;;;;1.60;1.48;;;;;;;;;;5024496;28;20052;-77
2021/03/20 09:49:06;;;;;;;2.10;1.60;;;;;;;;;;5026914;28;20072;-77
2021/03/20 09:52:08;;;;;;;2.83;1.77;;;;;;;;;;5024425;28;20100;-77
2021/03/20 09:54:40;;;;;;;2.72;1.80;;;;;;;;;;5026122;28;20139;-77
2021/03/20 09:57:22;;;;;;;1.98;1.70;;;;;;;;;;4995608;28;20049;-77
2021/03/20 09:59:49;;;;;;;3.03;1.50;;;;;;;;;;5014371;28;20041;-77
2021/03/20 10:02:15;;;;;;;2.47;1.60;;;;;;;;;;4993512;28;20492;-78
2021/03/20 10:05:04;;;;;;;2.35;1.75;;;;;;;;;;5014633;28;20053;-77
2021/03/20 10:07:34;;;;;;;4.10;1.88;;;;;;;;;;5016375;28;20042;-77
2021/03/20 10:10:10;;;;;;;1.60;1.50;;;;;;;;;;4984106;28;20042;-77
2021/03/20 10:12:42;;;;;;;3.45;2.00;;;;;;;;;;5025896;28;20050;-77
2021/03/20 10:15:13;;;;;;;3.63;1.95;;;;;;;;;;5016231;28;20133;-78
2021/03/20 10:18:10;;;;;;;1.85;1.60;;;;;;;;;;5025295;28;20046;-76
2021/03/20 10:20:41;;;;;;;3.53;1.98;;;;;;;;;;5011213;28;20049;-78
2021/03/20 10:23:38;;;;;;;2.53;1.60;;;;;;;;;;5050357;22;20084;-73
2021/03/20 10:26:30;;;;;;;2.75;1.60;;;;;;;;;;5052137;28;20087;-73
2021/03/20 10:28:58;;;;;;;2.00;1.60;;;;;;;;;;5051291;28;20097;-73
2021/03/20 10:31:26;;;;;;;3.00;1.83;;;;;;;;;;5034329;28;20556;-73
2021/03/20 10:34:06;;;;;;;3.00;1.90;;;;;;;;;;5034632;28;20052;-73
2021/03/20 10:36:44;;;;;;;2.80;1.85;;;;;;;;;;5017718;28;20087;-73
2021/03/20 10:39:30;;;;;;;2.88;2.05;;;;;;;;;;5051522;28;20049;-73
2021/03/20 10:42:03;;;;;;;2.78;2.13;;;;;;;;;;5050021;28;20057;-73
2021/03/20 10:44:32;;;;;;;3.63;1.92;;;;;;;;;;5034492;28;20053;-73
2021/03/20 10:47:05;;;;;;;6.28;2.63;;;;;;;;;;5017139;28;20045;-73
2021/03/20 10:49:37;;;;;;;3.30;2.10;;;;;;;;;;5033412;28;20056;-73
2021/03/20 10:52:04;;;;;;;2.70;1.90;;;;;;;;;;5048725;28;20048;-73
2021/03/20 10:54:36;;;;;;;3.13;1.83;;;;;;;;;;5051227;28;20068;-73
2021/03/20 10:57:15;;;;;;;3.30;2.25;;;;;;;;;;5017622;28;20049;-73
2021/03/20 10:59:43;;;;;;;2.92;2.00;;;;;;;;;;5009583;28;20581;-73
2021/03/20 11:02:36;;;;;;;3.00;2.35;;;;;;;;;;5050029;28;20443;-73
2021/03/20 11:05:21;;;;;;;3.65;2.75;;;;;;;;;;5017070;28;20041;-73
2021/03/20 11:07:48;;;;;;;4.05;2.33;;;;;;;;;;5048661;28;20538;-73
2021/03/20 11:10:15;;;;;;;4.05;2.25;;;;;;;;;;5044526;28;20103;-71
2021/03/20 11:12:41;;;;;;;5.47;2.55;;;;;;;;;;5030945;28;20115;-77
2021/03/20 11:15:26;;;;;;;2.83;2.20;;;;;;;;;;5018823;28;20048;-77
2021/03/20 11:17:55;;;;;;;4.50;2.20;;;;;;;;;;5018545;28;20045;-74
2021/03/20 11:20:36;;;;;;;2.90;2.30;;;;;;;;;;5013173;28;20455;-74
2021/03/20 11:23:04;;;;;;;3.05;2.50;;;;;;;;;;5032312;28;20045;-73
2021/03/20 11:25:42;;;;;;;2.92;2.33;;;;;;;;;;5008055;28;20049;-78
2021/03/20 11:28:09;;;;;;;2.78;2.10;;;;;;;;;;5029310;28;20045;-73
2021/03/20 11:30:47;;;;;;;2.50;1.92;;;;;;;;;;5048785;28;20080;-72
2021/03/20 11:33:21;;;;;;;4.00;2.17;;;;;;;;;;5016534;28;20049;-78
2021/03/20 11:35:50;;;;;;;3.50;2.20;;;;;;;;;;5031712;28;20132;-74
2021/03/20 11:38:18;;;;;;;2.65;2.13;;;;;;;;;;5032968;28;20392;-73
2021/03/20 11:40:46;;;;;;;2.50;2.22;;;;;;;;;;5048236;28;20137;-73
2021/03/20 11:43:23;;;;;;;6.13;2.47;;;;;;;;;;5047870;28;20083;-74
2021/03/20 11:45:51;;;;;;;3.83;2.40;;;;;;;;;;5030447;28;20298;-73
2021/03/20 11:48:37;;;;;;;2.58;2.08;;;;;;;;;;5014823;28;20099;-73
2021/03/20 11:51:07;;;;;;;3.75;2.25;;;;;;;;;;5046105;28;20048;-73
2021/03/20 11:53:45;;;;;;;3.00;2.38;;;;;;;;;;5012997;28;20094;-73
2021/03/20 11:56:18;;;;;;;3.15;2.35;;;;;;;;;;5012749;28;20078;-73
2021/03/20 11:58:50;;;;;;;;;;;;;;;;;;5048220;28;20122;-72
2021/03/20 12:01:32;;;;;;;3.33;2.05;;;;;;;;;;5047992;28;19971;-73
2021/03/20 12:04:08;;;;;;;3.85;2.15;;;;;;;;;;5044383;28;20056;-72
2021/03/20 12:06:36;;;;;;;4.03;2.60;;;;;;;;;;5034821;28;20057;-72
2021/03/20 12:09:23;;;;;;;4.63;2.47;;;;;;;;;;5034592;28;20056;-72
2021/03/20 12:11:51;;;;;;;4.05;2.63;;;;;;;;;;5033999;28;20053;-73
2021/03/20 12:14:40;;;;;;;4.03;2.50;;;;;;;;;;5047638;28;20052;-75
2021/03/20 12:17:43;;;;;;;4.78;2.03;;;;;;;;;;5029603;28;20219;-77
2021/03/20 12:20:33;;;;;;;3.30;2.28;;;;;;;;;;5041128;28;20132;-75
2021/03/20 12:23:15;;;;;;;3.08;2.42;;;;;;;;;;5029322;28;20123;-72
2021/03/20 12:25:50;;;;;;;3.23;2.67;;;;;;;;;;5032212;28;20076;-72
2021/03/20 12:28:31;;;;;;;3.78;2.42;;;;;;;;;;5030138;28;20299;-77
2021/03/20 12:31:17;;;;;;;3.80;3.00;;;;;;;;;;5015992;28;20111;-78
2021/03/20 12:34:02;;;;;;;2.85;2.30;;;;;;;;;;5043319;23;20071;-84
2021/03/20 12:36:39;;;;;;;4.05;2.30;;;;;;;;;;5005953;28;20088;-84
2021/03/20 12:39:10;;;;;;;3.53;2.78;;;;;;;;;;5019414;28;20061;-84
2021/03/20 12:41:37;;;;;;;4.43;2.65;;;;;;;;;;5016643;28;20053;-84
2021/03/20 12:44:09;;;;;;;2.92;2.40;;;;;;;;;;5010346;28;20445;-86
2021/03/20 12:46:37;;;;;;;2.87;2.57;;;;;;;;;;5024893;28;20442;-84
2021/03/20 12:49:03;;;;;;;4.82;2.38;;;;;;;;;;5025387;28;20061;-85
2021/03/20 12:51:30;;;;;;;2.60;2.40;;;;;;;;;;5028113;28;20053;-83
2021/03/20 12:53:56;;;;;;;2.95;2.30;;;;;;;;;;5024111;28;20049;-85
2021/03/20 12:56:22;;;;;;;3.00;2.30;;;;;;;;;;4996044;28;20064;-85
2021/03/20 12:58:49;;;;;;;3.03;2.05;;;;;;;;;;5028660;28;20068;-86
2021/03/20 13:01:15;;;;;;;2.67;2.25;;;;;;;;;;5019396;28;20045;-85
2021/03/20 13:03:42;;;;;;;2.85;2.40;;;;;;;;;;5014286;28;20057;-86
2021/03/20 13:06:09;;;;;;;3.25;2.20;;;;;;;;;;5013851;28;20053;-85
2021/03/20 13:08:38;;;;;;;3.10;2.22;;;;;;;;;;5003931;28;20068;-85
2021/03/20 13:11:06;;;;;;;2.90;2.15;;;;;;;;;;5022508;28;20049;-86
2021/03/20 13:13:32;;;;;;;2.92;2.15;;;;;;;;;;4999305;28;20057;-85
2021/03/20 13:16:00;;;;;;;2.53;2.33;;;;;;;;;;5014262;28;20054;-85
2021/03/20 13:18:37;;;;;;;1.95;1.80;;;;;;;;;;5018508;28;20088;-86
2021/03/20 13:21:04;;;;;;;2.67;2.45;;;;;;;;;;5013893;28;20493;-86
2021/03/20 13:23:30;;;;;;;3.10;2.00;;;;;;;;;;5030096;28;20520;-86
2021/03/20 13:25:57;;;;;;;2.58;2.38;;;;;;;;;;5023792;28;20053;-86
2021/03/20 13:28:23;;;;;;;4.35;2.45;;;;;;;;;;5029287;28;20052;-86
2021/03/20 13:30:49;;;;;;;3.92;2.15;;;;;;;;;;5014267;28;20049;-87
2021/03/20 13:33:16;;;;;;;2.60;2.00;;;;;;;;;;5008138;28;20072;-86
2021/03/20 13:35:44;;;;;;;2.78;1.95;;;;;;;;;;5026912;28;20524;-85
2021/03/20 13:38:10;;;;;;;3.70;2.03;;;;;;;;;;4996839;28;20057;-85
2021/03/20 13:40:37;;;;;;;2.83;2.15;;;;;;;;;;5052299;28;20064;-85
2021/03/20 13:43:04;;;;;;;3.78;2.40;;;;;;;;;;5018313;28;20123;-85
2021/03/20 13:45:31;;;;;;;2.70;2.50;;;;;;;;;;5028536;28;20065;-85
2021/03/20 13:47:58;;;;;;;2.63;2.42;;;;;;;;;;5029434;28;20056;-84
2021/03/20 13:50:27;;;;;;;3.70;2.45;;;;;;;;;;4999669;28;20524;-84
2021/03/20 13:52:54;;;;;;;6.10;2.30;;;;;;;;;;5012531;28;20045;-84
2021/03/20 13:55:20;;;;;;;4.05;2.30;;;;;;;;;;5006210;28;20502;-84
2021/03/20 13:57:46;;;;;;;3.03;2.35;;;;;;;;;;5023400;28;20064;-84
2021/03/20 14:00:13;;;;;;;3.55;2.50;;;;;;;;;;5003533;28;20513;-84
2021/03/20 14:02:40;;;;;;;3.38;2.53;;;;;;;;;;5019424;28;20045;-84
2021/03/20 14:05:09;;;;;;;2.17;1.98;;;;;;;;;;5029648;28;20050;-85
2021/03/20 14:07:45;;;;;;;2.25;1.98;;;;;;;;;;5035321;28;20504;-85
2021/03/20 14:10:28;;;;;;;2.30;2.10;;;;;;;;;;5022720;28;20046;-85
2021/03/20 14:12:55;;;;;;;3.47;2.28;;;;;;;;;;5016716;28;20059;-85
2021/03/20 14:15:25;;;;;;;3.13;2.28;;;;;;;;;;5012647;28;20084;-84
2021/03/20 14:17:52;;;;;;;3.30;2.72;;;;;;;;;;5012325;28;20136;-83
2021/03/20 14:20:34;;;;;;;7.40;2.97;;;;;;;;;;5009706;28;20038;-84
2021/03/20 14:23:01;;;;;;;4.35;2.25;;;;;;;;;;4994961;28;20156;-84
2021/03/20 14:25:28;;;;;;;5.93;2.65;;;;;;;;;;5012815;28;20045;-83
2021/03/20 14:27:54;;;;;;;16.92;4.55;;;;;;;;;;4993952;28;20050;-85
2021/03/20 14:30:22;;;;;;;11.18;3.45;;;;;;;;;;5012896;28;20551;-84
2021/03/20 14:33:09;;;;;;;3.70;2.70;;;;;;;;;;5017348;28;20111;-84
2021/03/20 14:35:35;;;;;;;4.50;2.40;;;;;;;;;;5014515;28;20061;-84
2021/03/20 14:38:02;;;;;;;2.85;1.95;;;;;;;;;;5014800;28;20555;-85
2021/03/20 14:40:31;;;;;;;3.45;2.58;;;;;;;;;;5019518;28;20060;-84
2021/03/20 14:42:58;;;;;;;7.80;2.80;;;;;;;;;;5030612;28;20049;-83
2021/03/20 14:45:24;;;;;;;4.00;2.53;;;;;;;;;;5036848;28;20061;-84
2021/03/20 14:47:50;;;;;;;4.70;2.47;;;;;;;;;;5025125;28;20060;-83
2021/03/20 14:50:21;;;;;;;6.50;3.25;;;;;;;;;;5041980;28;20055;-83
2021/03/20 14:52:49;;;;;;;5.35;2.33;;;;;;;;;;5001773;28;20060;-84
2021/03/20 14:55:15;;;;;;;3.65;2.17;;;;;;;;;;5020617;28;20096;-84
2021/03/20 14:57:42;;;;;;;4.65;2.10;;;;;;;;;;5019542;28;20119;-84
2021/03/20 15:00:32;;;;;;;6.60;2.13;;;;;;;;;;5030487;28;20050;-84
2021/03/20 15:02:58;;;;;;;3.00;1.67;;;;;;;;;;5028415;28;20374;-83
2021/03/20 15:05:26;;;;;;;2.63;2.08;;;;;;;;;;5006105;28;20517;-83
2021/03/20 15:07:53;;;;;;;3.35;1.80;;;;;;;;;;4968886;28;20061;-84
2021/03/20 15:10:30;;;;;;;4.47;2.35;;;;;;;;;;5008029;28;20050;-84
2021/03/20 15:12:56;;;;;;;3.80;2.08;;;;;;;;;;5008669;28;20053;-81
2021/03/20 15:15:24;;;;;;;3.40;2.20;;;;;;;;;;4995247;28;20061;-82
2021/03/20 15:17:51;;;;;;;3.22;2.13;;;;;;;;;;4985333;28;20057;-82
2021/03/20 15:20:21;;;;;;;2.38;1.65;;;;;;;;;;5034742;28;20076;-81
2021/03/20 15:22:47;;;;;;;2.17;1.58;;;;;;;;;;5015739;28;20057;-82
2021/03/20 15:25:13;;;;;;;2.35;1.80;;;;;;;;;;5009818;28;20097;-82
2021/03/20 15:27:40;;;;;;;4.97;2.10;;;;;;;;;;4997110;28;20053;-82
2021/03/20 15:30:11;;;;;;;1.58;1.48;;;;;;;;;;4999143;28;20152;-82
2021/03/20 15:32:37;;;;;;;2.00;1.77;;;;;;;;;;4993875;28;20146;-82
2021/03/20 15:35:05;;;;;;;4.97;1.58;;;;;;;;;;5016816;28;20058;-82